Time;durP1;ratioP1;P1;durP2;ratioP2;P2;SDS_P1;SDS_P2;PMS_P1;PMS_P2;Temp;Humidity;BMP_temperature;BMP_pressure;BME280_temperature;BME280_humidity;BME280_pressure;Samples;Min_cycle;Max_cycle;Signal;HPM_P1;HPM_P2
2021/01/29 00:01:33;;;;;;;1.08;0.90;;;;;;;10.66;100.00;99292.13;5054042;28;20056;-66
2021/01/29 00:04:17;;;;;;;3.40;1.20;;;;;;;10.69;100.00;99278.50;5053782;28;20083;-65
2021/01/29 00:07:01;;;;;;;3.00;0.82;;;;;;;10.69;100.00;99273.16;5052829;28;20051;-65
2021/01/29 00:09:45;;;;;;;8.73;1.60;;;;;;;10.69;100.00;99262.50;5052770;28;20099;-66
2021/01/29 00:12:29;;;;;;;3.78;1.00;;;;;;;10.73;100.00;99255.81;5052868;28;20052;-66
2021/01/29 00:15:17;;;;;;;2.63;0.95;;;;;;;10.71;100.00;99257.81;5052640;28;20064;-66
2021/01/29 00:18:01;;;;;;;1.77;0.82;;;;;;;10.68;100.00;99244.00;5053592;28;20051;-66
2021/01/29 00:20:46;;;;;;;1.45;1.05;;;;;;;10.65;100.00;99247.00;5053469;28;20083;-67
2021/01/29 00:23:30;;;;;;;2.05;0.88;;;;;;;10.69;100.00;99249.16;5053501;28;20125;-66
2021/01/29 00:26:14;;;;;;;0.90;0.90;;;;;;;10.74;100.00;99254.81;5052423;28;20497;-67
2021/01/29 00:28:57;;;;;;;2.30;0.90;;;;;;;10.70;100.00;99240.16;5052849;28;20084;-66
2021/01/29 00:31:42;;;;;;;3.05;1.17;;;;;;;10.60;100.00;99234.19;5053300;28;20060;-67
2021/01/29 00:34:26;;;;;;;3.42;1.00;;;;;;;10.52;100.00;99231.53;5053052;28;20128;-67
2021/01/29 00:37:10;;;;;;;3.88;0.88;;;;;;;10.45;100.00;99211.88;5038326;28;20106;-66
2021/01/29 00:39:54;;;;;;;0.93;0.80;;;;;;;10.39;100.00;99212.56;5053096;28;20130;-67
2021/01/29 00:42:38;;;;;;;3.05;1.00;;;;;;;10.39;100.00;99206.41;5052245;28;20048;-66
2021/01/29 00:45:26;;;;;;;1.88;1.15;;;;;;;10.36;100.00;99215.56;5051958;28;20052;-66
2021/01/29 00:48:10;;;;;;;3.00;1.02;;;;;;;10.31;100.00;99207.25;5052296;28;20094;-66
2021/01/29 00:50:54;;;;;;;5.55;1.35;;;;;;;10.25;100.00;99204.44;5053126;28;20039;-65
2021/01/29 00:53:38;;;;;;;1.90;1.10;;;;;;;10.18;100.00;99189.28;5051978;28;20051;-66
2021/01/29 00:56:23;;;;;;;2.97;1.52;;;;;;;10.15;100.00;99184.28;5052020;28;20051;-65
2021/01/29 00:59:07;;;;;;;5.43;2.25;;;;;;;10.11;100.00;99173.13;5053013;28;20127;-65
2021/01/29 01:01:51;;;;;;;3.30;1.67;;;;;;;10.15;100.00;99184.28;5052998;28;20484;-65
2021/01/29 01:04:34;;;;;;;5.75;1.80;;;;;;;10.13;100.00;99164.97;5052642;28;20055;-64
2021/01/29 01:07:19;;;;;;;4.63;2.00;;;;;;;10.16;100.00;99156.66;5053148;28;20091;-64
2021/01/29 01:10:05;;;;;;;3.67;2.30;;;;;;;10.14;100.00;99151.50;5037442;28;20048;-65
2021/01/29 01:12:49;;;;;;;3.85;2.28;;;;;;;10.14;100.00;99156.00;5051756;28;20154;-64
2021/01/29 01:15:32;;;;;;;2.65;2.08;;;;;;;10.14;100.00;99140.00;5052682;28;20154;-64
2021/01/29 01:18:16;;;;;;;3.05;2.40;;;;;;;10.15;100.00;99141.69;5051446;28;20047;-64
2021/01/29 01:21:01;;;;;;;2.78;1.90;;;;;;;10.17;100.00;99129.00;5051380;28;20048;-64
2021/01/29 01:23:45;;;;;;;2.50;2.25;;;;;;;10.18;100.00;99112.88;5051331;28;20106;-63
2021/01/29 01:26:29;;;;;;;2.85;2.20;;;;;;;10.20;100.00;99110.06;5052634;28;20056;-64
2021/01/29 01:29:12;;;;;;;3.42;2.13;;;;;;;10.20;100.00;99115.38;5051273;28;20113;-64
2021/01/29 01:31:56;;;;;;;2.85;2.13;;;;;;;10.20;100.00;99102.06;5052524;28;20114;-64
2021/01/29 01:34:40;;;;;;;3.45;2.40;;;;;;;10.22;100.00;99100.06;5052853;28;20120;-65
2021/01/29 01:37:24;;;;;;;4.60;2.13;;;;;;;10.20;100.00;99084.25;5052403;28;20056;-64
2021/01/29 01:40:09;;;;;;;2.72;1.80;;;;;;;10.20;100.00;99070.09;5052630;28;20040;-62
2021/01/29 01:42:53;;;;;;;2.42;1.80;;;;;;;10.21;100.00;99075.25;5057769;28;20059;-64
2021/01/29 01:46:00;;;;;;;2.58;1.92;;;;;;;10.20;100.00;99065.59;5057832;28;20047;-64
2021/01/29 01:48:47;;;;;;;1.67;1.42;;;;;;;10.23;100.00;99066.09;5058767;28;20460;-65
2021/01/29 01:51:38;;;;;;;2.03;1.38;;;;;;;10.22;100.00;99046.78;5058041;28;20055;-64
2021/01/29 01:54:42;;;;;;;1.33;1.23;;;;;;;10.25;100.00;99052.63;5057698;28;20409;-64
2021/01/29 01:57:27;;;;;;;1.48;1.05;;;;;;;10.27;100.00;99056.78;5057936;28;20043;-64
2021/01/29 02:00:19;;;;;;;2.83;1.77;;;;;;;10.23;100.00;99036.78;5057938;28;20047;-64
2021/01/29 02:03:15;;;;;;;2.17;1.52;;;;;;;10.29;100.00;99033.47;5057839;28;20086;-64
2021/01/29 02:05:59;;;;;;;3.35;1.60;;;;;;;10.27;100.00;99030.16;5057640;28;20098;-64
2021/01/29 02:08:46;;;;;;;2.05;1.67;;;;;;;10.29;100.00;99021.97;5058569;28;20555;-65
2021/01/29 02:11:29;;;;;;;2.10;1.63;;;;;;;10.30;100.00;99029.78;5057615;28;20051;-64
2021/01/29 02:14:14;;;;;;;3.35;1.88;;;;;;;10.32;100.00;99027.78;5058529;28;20083;-64
2021/01/29 02:17:02;;;;;;;1.83;1.48;;;;;;;10.33;100.00;99012.63;5043722;28;20059;-65
2021/01/29 02:20:05;;;;;;;3.10;1.80;;;;;;;10.31;100.00;99012.81;5057796;28;20048;-64
2021/01/29 02:23:18;;;;;;;3.88;2.20;;;;;;;10.31;100.00;99015.47;5058893;28;20047;-64
2021/01/29 02:26:23;;;;;;;4.10;2.28;;;;;;;10.31;100.00;99014.63;5012428;28;20159;-64
2021/01/29 02:29:26;;;;;;;2.80;2.30;;;;;;;10.35;100.00;99003.44;5058408;28;20105;-64
2021/01/29 02:32:32;;;;;;;3.15;2.10;;;;;;;10.36;100.00;99002.44;5043118;28;20063;-64
2021/01/29 02:35:21;;;;;;;2.92;1.70;;;;;;;10.37;100.00;98993.47;5180891;22;20114;-72
2021/01/29 02:38:50;;;;;;;3.30;1.90;;;;;;;10.37;100.00;98990.81;5057356;28;20420;-71
2021/01/29 02:42:06;;;;;;;4.97;1.90;;;;;;;10.38;100.00;98984.47;5056258;28;20052;-72
2021/01/29 02:44:59;;;;;;;3.70;2.45;;;;;;;10.37;100.00;98966.00;5052753;28;20407;-71
2021/01/29 02:48:03;;;;;;;2.90;2.13;;;;;;;10.38;100.00;98957.84;5058545;28;20409;-72
2021/01/29 02:51:06;;;;;;;2.63;2.30;;;;;;;10.38;100.00;98954.34;5058499;28;20043;-71
2021/01/29 02:53:59;;;;;;;4.40;2.30;;;;;;;10.38;100.00;98952.50;5053477;28;20048;-71
2021/01/29 02:56:49;;;;;;;2.30;1.70;;;;;;;10.39;100.00;98948.84;5054284;28;20098;-71
2021/01/29 02:59:59;;;;;;;2.25;1.60;;;;;;;10.38;100.00;98951.66;5055032;28;20120;-71
2021/01/29 03:03:10;;;;;;;3.03;1.77;;;;;;;10.34;100.00;98945.84;5054153;28;20135;-71
2021/01/29 03:05:59;;;;;;;3.50;2.10;;;;;;;10.37;100.00;98929.53;5054006;28;20131;-71
2021/01/29 03:08:51;;;;;;;2.00;1.70;;;;;;;10.33;100.00;98922.88;5039970;28;20107;-71
2021/01/29 03:11:47;;;;;;;1.92;1.50;;;;;;;10.34;100.00;98951.19;5054167;28;20151;-71
2021/01/29 03:14:52;;;;;;;1.30;1.13;;;;;;;10.32;100.00;98907.06;5039903;28;20047;-71
2021/01/29 03:17:58;;;;;;;2.25;1.50;;;;;;;10.30;100.00;98901.09;5053917;28;20509;-71
2021/01/29 03:20:53;;;;;;;5.05;1.20;;;;;;;10.29;100.00;98886.97;5053763;28;20044;-71
2021/01/29 03:23:59;;;;;;;1.58;1.20;;;;;;;10.28;100.00;98879.16;5054781;28;20458;-71
2021/01/29 03:26:56;;;;;;;4.05;1.33;;;;;;;10.25;100.00;98861.66;5053787;28;20047;-71
2021/01/29 03:30:02;;;;;;;1.45;1.02;;;;;;;10.23;100.00;98869.00;5053568;28;20187;-72
2021/01/29 03:32:49;;;;;;;1.20;1.10;;;;;;;10.22;100.00;98871.03;5039313;28;20150;-71
2021/01/29 03:35:37;;;;;;;2.03;1.10;;;;;;;10.20;100.00;98857.88;5039329;28;20098;-71
2021/01/29 03:38:44;;;;;;;1.83;1.30;;;;;;;10.20;100.00;98846.41;5053353;28;20520;-70
2021/01/29 03:41:36;;;;;;;3.13;1.42;;;;;;;10.17;100.00;98849.41;5053254;28;20527;-71
2021/01/29 03:44:33;;;;;;;1.63;1.20;;;;;;;10.14;100.00;98837.28;5053561;28;20052;-70
2021/01/29 03:47:25;;;;;;;2.15;0.98;;;;;;;10.11;100.00;98831.50;5054063;28;20048;-70
2021/01/29 03:50:17;;;;;;;2.05;1.08;;;;;;;10.09;100.00;98825.50;5053232;28;20153;-70
2021/01/29 03:53:11;;;;;;;5.15;1.27;;;;;;;10.06;100.00;98818.69;5054233;28;20127;-71
2021/01/29 03:56:02;;;;;;;1.67;0.90;;;;;;;10.04;100.00;98819.88;5053066;28;20047;-70
2021/01/29 03:59:14;;;;;;;1.77;1.20;;;;;;;9.99;100.00;98819.56;5053061;28;20052;-70
2021/01/29 04:02:07;;;;;;;3.67;1.10;;;;;;;9.98;100.00;98793.94;5054095;28;20528;-70
2021/01/29 04:05:09;;;;;;;1.95;0.90;;;;;;;9.94;100.00;98785.47;5051667;28;20474;-70
2021/01/29 04:08:01;;;;;;;1.10;0.75;;;;;;;9.92;100.00;98765.34;5053900;28;20047;-70
2021/01/29 04:10:47;;;;;;;2.95;0.88;;;;;;;9.94;100.00;98766.00;5038444;28;20044;-70
2021/01/29 04:13:37;;;;;;;0.82;0.63;;;;;;;9.92;100.00;98765.34;5053887;28;20094;-69
2021/01/29 04:16:26;;;;;;;2.72;0.80;;;;;;;9.92;100.00;98746.72;5052538;28;20095;-71
2021/01/29 04:19:17;;;;;;;0.50;0.50;;;;;;;9.93;100.00;98743.91;5052673;28;20044;-70
2021/01/29 04:22:06;;;;;;;1.85;1.00;;;;;;;9.94;100.00;98726.06;5052447;28;20075;-71
2021/01/29 04:24:56;;;;;;;0.55;0.50;;;;;;;9.97;100.00;98728.41;5052517;28;20060;-71
2021/01/29 04:27:42;;;;;;;2.60;0.68;;;;;;;9.96;100.00;98711.59;5038499;28;20128;-71
2021/01/29 04:30:28;;;;;;;1.17;0.73;;;;;;;9.96;100.00;98705.41;5052414;28;20154;-71
2021/01/29 04:33:15;;;;;;;1.55;0.90;;;;;;;9.96;100.00;98706.25;5052477;28;20068;-71
2021/01/29 04:36:01;;;;;;;1.13;0.60;;;;;;;9.98;100.00;98698.13;5037912;28;20098;-70
2021/01/29 04:38:56;;;;;;;0.98;0.65;;;;;;;9.98;100.00;98695.44;5053245;28;20119;-71
2021/01/29 04:42:00;;;;;;;;;;;;;;;10.00;100.00;98682.78;5052459;28;20517;-71
2021/01/29 04:45:03;;;;;;;0.82;0.80;;;;;;;10.01;100.00;98693.22;5050870;28;20388;-70
2021/01/29 04:47:53;;;;;;;0.85;0.55;;;;;;;10.02;100.00;98683.44;5053028;28;20410;-70
2021/01/29 04:51:20;;;;;;;2.35;1.02;;;;;;;10.02;100.00;98684.31;5052025;28;20047;-67
2021/01/29 04:54:22;;;;;;;1.42;0.90;;;;;;;10.06;100.00;98679.41;5052321;28;20043;-70
2021/01/29 04:57:24;;;;;;;1.92;0.77;;;;;;;10.07;100.00;98668.59;5052771;28;20186;-70
2021/01/29 05:00:42;;;;;;;3.20;1.20;;;;;;;10.08;100.00;98661.47;5051727;28;20421;-69
2021/01/29 05:04:11;;;;;;;3.45;1.23;;;;;;;10.11;100.00;98677.88;5051825;28;20072;-70
2021/01/29 05:07:40;;;;;;;1.73;0.70;;;;;;;10.12;100.00;98673.38;5031932;28;20413;-69
2021/01/29 05:10:48;;;;;;;1.40;0.98;;;;;;;10.13;100.00;98672.38;5051677;28;20087;-69
2021/01/29 05:13:54;;;;;;;2.95;1.00;;;;;;;10.11;100.00;98648.59;5051478;28;20048;-69
2021/01/29 05:17:12;;;;;;;0.80;0.77;;;;;;;10.12;100.00;98625.47;5052364;28;20456;-70
2021/01/29 05:20:21;;;;;;;1.80;0.47;;;;;;;10.11;100.00;98626.47;5051719;28;20094;-70
2021/01/29 05:23:19;;;;;;;0.55;0.55;;;;;;;10.11;100.00;98607.84;5052434;28;20048;-69
2021/01/29 05:26:27;;;;;;;1.20;1.10;;;;;;;10.10;100.00;98592.88;5037278;28;20544;-70
2021/01/29 05:29:39;;;;;;;2.78;1.13;;;;;;;10.10;100.00;98630.97;5052656;28;20091;-70
2021/01/29 05:32:42;;;;;;;2.08;1.13;;;;;;;10.07;100.00;98618.03;5037524;28;20052;-70
2021/01/29 05:35:48;;;;;;;2.10;1.02;;;;;;;10.07;100.00;98630.50;5051085;28;20094;-70
2021/01/29 05:38:41;;;;;;;2.13;0.90;;;;;;;10.06;100.00;98632.34;5052514;28;20036;-70
2021/01/29 05:41:52;;;;;;;1.90;1.10;;;;;;;10.10;100.00;98638.13;5052512;28;20059;-70
2021/01/29 05:44:54;;;;;;;1.20;0.90;;;;;;;10.10;100.00;98651.44;5051107;28;20060;-71
2021/01/29 05:48:05;;;;;;;1.08;0.80;;;;;;;10.16;100.00;98648.06;5037225;28;20091;-70
2021/01/29 05:51:19;;;;;;;0.65;0.60;;;;;;;10.18;100.00;98646.88;5051336;28;20095;-71
2021/01/29 05:54:30;;;;;;;0.75;0.70;;;;;;;10.18;100.00;98620.25;5051425;28;20463;-70
2021/01/29 05:57:46;;;;;;;2.50;0.82;;;;;;;10.16;100.00;98614.28;5051005;28;20099;-70
2021/01/29 06:00:52;;;;;;;0.65;0.50;;;;;;;10.14;100.00;98636.75;5052196;28;20095;-70
2021/01/29 06:04:03;;;;;;;4.93;0.68;;;;;;;10.09;100.00;98631.16;5051509;28;20389;-70
2021/01/29 06:07:02;;;;;;;1.13;0.70;;;;;;;10.00;100.00;98614.38;5052395;28;20072;-70
2021/01/29 06:10:16;;;;;;;0.35;0.35;;;;;;;9.91;100.00;98639.41;5052265;28;20048;-71
2021/01/29 06:13:21;;;;;;;0.40;0.35;;;;;;;9.82;100.00;98626.38;5052276;28;20060;-70
2021/01/29 06:16:36;;;;;;;1.27;0.60;;;;;;;9.79;100.00;98634.72;5051946;28;20528;-70
2021/01/29 06:19:26;;;;;;;;;;;;;;;9.68;100.00;98667.88;5051416;28;20040;-71
2021/01/29 06:22:31;;;;;;;0.55;0.45;;;;;;;9.66;100.00;98677.88;5052010;28;19924;-71
2021/01/29 06:25:54;;;;;;;1.55;0.47;;;;;;;9.60;100.00;98689.19;5051952;28;20122;-71
2021/01/29 06:28:48;;;;;;;0.20;0.20;;;;;;;9.63;100.00;98701.34;5053514;28;20138;-70
2021/01/29 06:31:54;;;;;;;0.75;0.20;;;;;;;9.69;100.00;98697.97;5054793;28;20083;-70
2021/01/29 06:35:09;;;;;;;4.03;1.95;;;;;;;9.68;100.00;98717.63;5055468;28;20099;-71
2021/01/29 06:38:15;;;;;;;0.25;0.25;;;;;;;9.66;100.00;98740.88;5054800;28;20048;-72
2021/01/29 06:41:36;;;;;;;3.97;0.50;;;;;;;9.69;100.00;98724.59;5055777;28;20083;-71
2021/01/29 06:44:27;;;;;;;0.20;0.20;;;;;;;9.71;100.00;98735.88;5055632;28;20048;-72
2021/01/29 06:47:32;;;;;;;0.45;0.30;;;;;;;9.79;100.00;98767.78;5055677;28;20053;-72
2021/01/29 06:50:44;;;;;;;0.82;0.30;;;;;;;9.97;100.00;98755.84;5055528;28;20064;-72
2021/01/29 06:53:46;;;;;;;1.70;0.30;;;;;;;10.13;100.00;98763.75;5055755;28;20071;-72
2021/01/29 06:56:36;;;;;;;0.40;0.40;;;;;;;10.17;100.00;98758.88;5040638;28;20390;-72
2021/01/29 06:59:36;;;;;;;2.30;0.40;;;;;;;10.22;100.00;98770.69;5055465;28;20039;-73
2021/01/29 07:02:41;;;;;;;0.30;0.30;;;;;;;10.35;100.00;98778.88;5055082;28;20106;-72
2021/01/29 07:05:37;;;;;;;1.25;0.55;;;;;;;10.40;99.86;98780.00;5039973;28;20052;-72
2021/01/29 07:08:55;;;;;;;1.10;0.38;;;;;;;10.31;100.00;98786.41;5054182;28;20048;-72
2021/01/29 07:12:04;;;;;;;0.30;0.30;;;;;;;10.30;100.00;98795.41;5054959;28;20048;-72
2021/01/29 07:14:57;;;;;;;2.75;0.30;;;;;;;10.35;100.00;98803.66;5054886;28;20401;-72
2021/01/29 07:18:00;;;;;;;0.20;0.20;;;;;;;10.35;100.00;98803.66;5054864;28;20044;-72
2021/01/29 07:20:58;;;;;;;0.57;0.32;;;;;;;10.42;99.29;98799.31;5054066;28;20378;-72
2021/01/29 07:23:48;;;;;;;0.30;0.30;;;;;;;10.41;100.00;98780.81;5053909;28;20163;-71
2021/01/29 07:26:44;;;;;;;0.25;0.25;;;;;;;10.44;99.73;98791.94;5054971;28;20039;-72
2021/01/29 07:29:51;;;;;;;0.35;0.35;;;;;;;10.45;98.90;98800.78;5053592;28;20056;-70
2021/01/29 07:32:46;;;;;;;1.83;0.63;;;;;;;10.46;99.05;98805.91;5053899;28;20105;-72
2021/01/29 07:35:50;;;;;;;;;;;;;;;10.44;99.74;98813.25;5054130;28;20059;-71
2021/01/29 07:39:12;;;;;;;1.23;0.40;;;;;;;10.47;99.17;98823.56;5053358;28;20391;-71
2021/01/29 07:42:30;;;;;;;0.68;0.65;;;;;;;10.51;98.19;98803.56;5053600;28;20040;-71
2021/01/29 07:45:17;;;;;;;1.75;0.55;;;;;;;10.49;98.66;98816.25;5054520;28;20102;-71
2021/01/29 07:48:20;;;;;;;0.50;0.45;;;;;;;10.56;97.49;98816.34;5054344;28;20485;-70
2021/01/29 07:51:29;;;;;;;0.75;0.50;;;;;;;10.51;97.66;98827.53;5053363;28;20098;-73
2021/01/29 07:54:34;;;;;;;0.73;0.60;;;;;;;10.54;96.89;98821.84;5039237;28;20508;-70
2021/01/29 07:57:40;;;;;;;0.80;0.52;;;;;;;10.57;97.36;98849.97;5053285;28;20469;-71
2021/01/29 08:01:02;;;;;;;0.45;0.45;;;;;;;10.57;97.95;98832.13;5054109;28;20127;-71
2021/01/29 08:03:53;;;;;;;0.43;0.40;;;;;;;10.70;95.62;98835.06;5053902;28;20453;-71
2021/01/29 08:06:52;;;;;;;1.23;0.50;;;;;;;10.73;95.82;98834.69;5054150;28;20512;-70
2021/01/29 08:09:39;;;;;;;0.40;0.40;;;;;;;10.68;97.82;98830.91;5052856;28;20056;-71
2021/01/29 08:12:23;;;;;;;0.85;0.40;;;;;;;10.64;98.10;98843.75;5054080;28;20113;-71
2021/01/29 08:15:26;;;;;;;0.90;0.50;;;;;;;10.56;99.48;98843.81;5052705;28;20186;-71
2021/01/29 08:18:32;;;;;;;1.10;0.38;;;;;;;10.57;100.00;98860.63;5053939;28;20071;-71
2021/01/29 08:21:22;;;;;;;0.82;0.55;;;;;;;10.59;99.27;98848.81;5052597;28;20044;-71
2021/01/29 08:24:19;;;;;;;0.93;0.50;;;;;;;10.63;98.51;98854.59;5052730;28;20044;-70
2021/01/29 08:27:40;;;;;;;0.30;0.30;;;;;;;10.65;98.96;98853.41;5052831;28;20124;-70
2021/01/29 08:30:43;;;;;;;1.88;0.50;;;;;;;10.76;97.90;98858.31;5053440;28;20505;-70
2021/01/29 08:34:11;;;;;;;7.65;0.82;;;;;;;10.96;94.52;98862.13;5054107;28;20068;-71
2021/01/29 08:37:14;;;;;;;0.65;0.52;;;;;;;10.92;95.22;98850.19;5045375;28;20102;-71
2021/01/29 08:40:17;;;;;;;3.38;0.93;;;;;;;11.01;94.71;98865.09;5052525;28;20095;-70
2021/01/29 08:43:29;;;;;;;2.22;0.60;;;;;;;11.05;93.26;98866.38;5053479;28;20496;-71
2021/01/29 08:46:16;;;;;;;2.95;0.60;;;;;;;11.16;92.32;98862.47;5053252;28;20091;-70
2021/01/29 08:49:48;;;;;;;2.17;0.60;;;;;;;11.27;90.36;98892.16;5053106;28;20048;-70
2021/01/29 08:52:35;;;;;;;1.67;0.60;;;;;;;11.37;91.78;98871.41;5053115;28;20119;-70
2021/01/29 08:55:30;;;;;;;2.63;0.55;;;;;;;11.57;87.58;98877.88;5038093;28;20047;-71
2021/01/29 08:58:25;;;;;;;4.13;1.08;;;;;;;11.70;82.20;98878.09;5038147;28;20067;-70
2021/01/29 09:01:32;;;;;;;1.15;0.57;;;;;;;11.86;78.42;98893.91;5052140;28;20512;-71
2021/01/29 09:04:38;;;;;;;3.60;0.95;;;;;;;11.88;79.65;98902.53;5051834;28;20064;-71
2021/01/29 09:07:28;;;;;;;3.13;0.90;;;;;;;11.91;75.23;98896.00;5052026;28;20555;-71
2021/01/29 09:10:15;;;;;;;3.40;0.85;;;;;;;11.97;73.86;98896.09;5051911;28;20122;-70
2021/01/29 09:13:02;;;;;;;3.97;0.77;;;;;;;12.26;72.97;98901.41;5052979;28;20047;-70
2021/01/29 09:16:05;;;;;;;2.28;0.80;;;;;;;12.67;69.44;98910.50;5051697;28;20056;-70
2021/01/29 09:18:56;;;;;;;2.83;1.25;;;;;;;12.52;69.78;98912.41;5037590;28;20048;-69
2021/01/29 09:22:07;;;;;;;4.07;1.10;;;;;;;12.31;70.58;98930.22;5051850;28;20136;-70
2021/01/29 09:25:10;;;;;;;5.25;1.15;;;;;;;12.11;70.56;98919.31;5051776;28;20044;-70
2021/01/29 09:28:12;;;;;;;5.97;0.93;;;;;;;12.04;71.56;98921.06;5052594;28;20136;-70
2021/01/29 09:31:18;;;;;;;5.10;1.08;;;;;;;11.97;72.31;98917.47;5051426;28;20131;-70
2021/01/29 09:34:12;;;;;;;4.75;1.33;;;;;;;11.91;71.96;98926.22;5051497;28;20043;-70
2021/01/29 09:37:02;;;;;;;10.85;1.30;;;;;;;11.87;73.05;98921.44;5051323;28;20056;-69
2021/01/29 09:39:57;;;;;;;3.40;1.10;;;;;;;11.85;71.84;98950.97;5051229;28;20090;-70
2021/01/29 09:42:46;;;;;;;8.00;1.85;;;;;;;11.92;69.95;98940.41;5037442;28;20039;-70
2021/01/29 09:45:30;;;;;;;7.72;1.50;;;;;;;11.92;71.57;98930.56;5052349;28;20067;-70
2021/01/29 09:48:14;;;;;;;6.43;1.73;;;;;;;11.98;69.84;98951.16;5037630;28;20094;-70
2021/01/29 09:51:07;;;;;;;5.68;1.55;;;;;;;12.06;67.94;98956.41;5052279;28;20587;-70
2021/01/29 09:53:57;;;;;;;7.05;1.63;;;;;;;12.18;69.27;98940.75;5051612;28;20259;-69
2021/01/29 09:56:45;;;;;;;5.20;1.75;;;;;;;13.49;61.88;98936.59;5051794;28;20056;-70
2021/01/29 09:59:40;;;;;;;6.50;1.63;;;;;;;13.63;62.66;98924.94;5052683;28;20125;-70
2021/01/29 10:02:29;;;;;;;7.85;1.85;;;;;;;13.29;60.67;98936.44;5053597;28;20102;-70
2021/01/29 10:05:18;;;;;;;6.80;1.33;;;;;;;13.55;60.25;98954.56;5055078;28;20067;-70
2021/01/29 10:08:28;;;;;;;5.70;1.52;;;;;;;14.79;56.49;98946.16;5041304;28;20048;-69
2021/01/29 10:11:28;;;;;;;5.07;1.13;;;;;;;17.43;49.15;98922.53;5040649;28;20131;-69
2021/01/29 10:14:19;;;;;;;2.67;1.02;;;;;;;16.49;48.93;98963.88;5041387;28;20082;-69
2021/01/29 10:17:28;;;;;;;6.22;1.60;;;;;;;15.52;51.39;98948.75;5055357;28;20051;-69
2021/01/29 10:20:21;;;;;;;4.50;1.42;;;;;;;14.97;53.28;98956.28;5055213;28;20059;-69
2021/01/29 10:23:14;;;;;;;6.13;1.20;;;;;;;14.54;54.61;98958.47;5055394;28;20048;-69
2021/01/29 10:26:21;;;;;;;3.13;1.35;;;;;;;15.02;54.51;98951.16;5055063;28;20181;-69
2021/01/29 10:29:08;;;;;;;5.88;1.17;;;;;;;14.59;56.23;98944.44;5054882;28;20129;-69
2021/01/29 10:32:17;;;;;;;4.90;1.33;;;;;;;14.57;56.13;98949.19;5054916;28;20051;-70
2021/01/29 10:35:07;;;;;;;6.28;1.38;;;;;;;16.02;52.56;98946.22;5054549;28;20048;-69
2021/01/29 10:38:19;;;;;;;4.28;1.67;;;;;;;16.95;47.84;98977.94;5040733;28;20466;-69
2021/01/29 10:41:25;;;;;;;4.43;1.45;;;;;;;17.83;46.43;98929.22;5055609;28;20072;-69
2021/01/29 10:44:14;;;;;;;5.90;1.55;;;;;;;17.56;46.41;98952.06;5054593;28;20051;-69
2021/01/29 10:47:19;;;;;;;4.28;1.20;;;;;;;17.08;46.97;98965.22;5054613;28;20137;-69
2021/01/29 10:50:24;;;;;;;2.08;0.98;;;;;;;15.55;50.26;98969.00;5055355;28;20161;-68
2021/01/29 10:53:26;;;;;;;4.80;1.30;;;;;;;14.40;54.77;98969.34;5055337;28;20045;-69
2021/01/29 10:56:17;;;;;;;3.80;1.20;;;;;;;13.80;56.57;98971.84;5054604;28;20137;-68
2021/01/29 10:59:25;;;;;;;4.22;1.08;;;;;;;13.27;58.93;98983.94;5054414;28;20178;-69
2021/01/29 11:02:13;;;;;;;6.47;1.50;;;;;;;13.17;60.15;98977.28;5054315;28;20044;-69
2021/01/29 11:05:06;;;;;;;8.18;1.50;;;;;;;13.08;60.32;98983.78;5055019;28;20051;-69
2021/01/29 11:07:52;;;;;;;4.20;1.20;;;;;;;13.28;60.10;98980.25;5054213;28;20071;-68
2021/01/29 11:10:38;;;;;;;4.95;1.83;;;;;;;14.50;56.30;98978.63;5054090;28;20187;-68
2021/01/29 11:13:44;;;;;;;4.93;1.33;;;;;;;15.95;52.13;98972.28;5054491;28;20512;-69
2021/01/29 11:17:02;;;;;;;2.67;1.40;;;;;;;15.74;51.23;98975.19;5054883;28;20083;-69
2021/01/29 11:19:47;;;;;;;4.53;1.67;;;;;;;17.06;48.80;98967.31;5055091;28;20040;-69
2021/01/29 11:22:49;;;;;;;3.80;1.10;;;;;;;17.50;45.76;98967.25;5053652;28;20505;-69
2021/01/29 11:25:42;;;;;;;4.25;1.02;;;;;;;15.15;51.91;98983.38;5053948;28;20137;-68
2021/01/29 11:28:59;;;;;;;5.45;1.13;;;;;;;13.50;58.21;99010.53;5054666;28;20106;-69
2021/01/29 11:31:48;;;;;;;6.15;1.52;;;;;;;12.83;63.94;99006.53;5051126;28;20055;-69
2021/01/29 11:34:33;;;;;;;4.63;1.25;;;;;;;12.66;66.75;99007.75;5053366;28;20055;-70
2021/01/29 11:37:35;;;;;;;5.07;1.05;;;;;;;12.33;71.25;98993.16;5054665;28;20464;-70
2021/01/29 11:40:44;;;;;;;6.47;1.35;;;;;;;12.84;71.19;98987.59;5054387;28;20126;-70
2021/01/29 11:43:37;;;;;;;6.07;1.50;;;;;;;13.21;65.88;98970.50;5054458;28;20110;-70
2021/01/29 11:46:27;;;;;;;6.07;1.50;;;;;;;13.61;66.36;98969.84;5054466;28;20064;-70
2021/01/29 11:49:16;;;;;;;4.43;1.20;;;;;;;13.65;63.88;98963.09;5054234;28;20136;-70
2021/01/29 11:52:26;;;;;;;7.60;1.55;;;;;;;13.73;61.80;98945.00;5053500;28;20441;-70
2021/01/29 11:55:15;;;;;;;10.20;1.40;;;;;;;13.28;63.17;98950.00;5053240;28;20079;-70
2021/01/29 11:58:21;;;;;;;8.73;1.63;;;;;;;13.12;64.73;98947.59;5039164;28;20409;-69
2021/01/29 12:01:12;;;;;;;6.90;2.13;;;;;;;13.34;63.38;98957.28;5054303;28;20115;-69
2021/01/29 12:04:05;;;;;;;5.68;1.67;;;;;;;13.13;61.74;98951.91;5053009;28;20067;-70
2021/01/29 12:06:57;;;;;;;3.08;1.17;;;;;;;13.00;61.57;98973.19;5039510;28;20048;-69
2021/01/29 12:09:51;;;;;;;5.50;2.15;;;;;;;13.24;61.85;98960.25;5052728;28;20106;-69
2021/01/29 12:12:38;;;;;;;6.82;1.77;;;;;;;13.93;58.01;98951.31;5053128;28;20066;-70
2021/01/29 12:15:36;;;;;;;3.42;0.95;;;;;;;14.92;55.52;98945.38;5053988;28;20043;-69
2021/01/29 12:18:22;;;;;;;9.75;1.80;;;;;;;15.25;55.49;98940.88;5052922;28;20048;-70
2021/01/29 12:21:10;;;;;;;7.40;1.92;;;;;;;14.40;58.42;98934.47;5052787;28;20512;-70
2021/01/29 12:24:19;;;;;;;4.43;1.50;;;;;;;14.88;57.93;98938.75;5052706;28;20079;-69
2021/01/29 12:27:09;;;;;;;4.93;1.35;;;;;;;15.47;56.21;98945.03;5052336;28;20040;-69
2021/01/29 12:30:09;;;;;;;4.95;1.27;;;;;;;16.26;55.37;98932.06;5038393;28;20059;-69
2021/01/29 12:33:09;;;;;;;3.42;1.08;;;;;;;15.00;57.97;98937.13;5052307;28;20048;-69
2021/01/29 12:35:59;;;;;;;8.30;1.50;;;;;;;15.58;56.21;98945.25;5053262;28;20410;-69
2021/01/29 12:39:02;;;;;;;4.90;2.60;;;;;;;15.63;55.73;98948.13;5052412;28;20122;-70
2021/01/29 12:41:54;;;;;;;3.65;1.13;;;;;;;14.47;59.98;98964.84;5052290;28;20094;-69
2021/01/29 12:44:44;;;;;;;3.60;1.25;;;;;;;14.13;62.29;98944.22;5052373;28;20086;-69
2021/01/29 12:47:50;;;;;;;2.47;1.08;;;;;;;13.55;65.49;98949.22;5053455;28;20405;-69
2021/01/29 12:50:56;;;;;;;3.63;1.20;;;;;;;12.69;71.36;98940.53;5052401;28;20048;-69
2021/01/29 12:53:40;;;;;;;6.22;1.52;;;;;;;12.20;77.08;98955.56;5052355;28;20051;-69
2021/01/29 12:56:36;;;;;;;8.90;2.30;;;;;;;11.98;83.62;98940.47;5053158;28;20087;-69
2021/01/29 12:59:43;;;;;;;5.40;1.30;;;;;;;11.67;81.84;98945.16;5052134;28;20175;-69
2021/01/29 13:02:33;;;;;;;5.93;1.40;;;;;;;11.60;83.81;98940.75;5051946;28;20475;-69
2021/01/29 13:05:55;;;;;;;4.85;1.50;;;;;;;11.72;83.30;98942.78;5051959;28;20048;-69
2021/01/29 13:09:04;;;;;;;3.97;1.30;;;;;;;11.63;84.41;98935.88;5053184;28;20048;-69
2021/01/29 13:12:07;;;;;;;0.50;0.50;;;;;;;11.34;84.81;98946.47;5037765;28;20059;-69
2021/01/29 13:15:19;;;;;;;5.53;1.40;;;;;;;11.09;90.28;98945.03;5037918;28;20523;-69
2021/01/29 13:18:05;;;;;;;8.55;1.40;;;;;;;11.24;91.65;98940.56;5051654;28;20077;-68
2021/01/29 13:20:53;;;;;;;5.35;1.17;;;;;;;11.85;87.80;98924.28;5051761;28;20414;-69
2021/01/29 13:23:39;;;;;;;4.40;1.08;;;;;;;12.35;84.26;98929.66;5051566;28;20063;-69
2021/01/29 13:26:44;;;;;;;6.55;1.25;;;;;;;12.51;80.98;98928.63;5052601;28;20064;-69
2021/01/29 13:29:31;;;;;;;4.90;1.40;;;;;;;11.98;80.73;98923.66;5051638;28;20128;-69
2021/01/29 13:32:24;;;;;;;5.75;1.42;;;;;;;11.57;83.34;98928.59;5051479;28;20155;-69
2021/01/29 13:35:10;;;;;;;4.82;1.40;;;;;;;11.23;85.28;98949.56;5051373;28;20056;-69
2021/01/29 13:38:05;;;;;;;3.92;0.90;;;;;;;10.93;86.68;98945.16;5051360;28;20118;-69
2021/01/29 13:40:50;;;;;;;2.97;0.90;;;;;;;10.69;89.83;98921.34;5037301;28;20064;-69
2021/01/29 13:43:34;;;;;;;8.50;1.65;;;;;;;10.38;95.53;98925.88;5052494;28;20169;-68
2021/01/29 13:46:32;;;;;;;3.88;1.30;;;;;;;10.23;96.72;98916.13;5051581;28;20095;-69
2021/01/29 13:49:40;;;;;;;3.40;0.98;;;;;;;10.50;95.83;98929.78;5052515;28;20110;-68
2021/01/29 13:52:33;;;;;;;2.88;1.23;;;;;;;10.54;94.86;98907.09;5051567;28;20052;-69